createdAt,value
2022-12-01T00:02:01.704Z,24.18
2022-12-01T00:07:07.667Z,23.72
2022-12-01T00:12:13.043Z,22.25
2022-12-01T00:17:20.133Z,22.88
2022-12-01T00:22:23.967Z,23.41
2022-12-01T00:27:28.171Z,23.65
2022-12-01T00:32:32.842Z,25.68
2022-12-01T00:37:38.816Z,24.24
2022-12-01T00:42:42.132Z,24.96
2022-12-01T00:47:46.853Z,25.38
2022-12-01T00:52:52.399Z,27.75
2022-12-01T00:57:55.762Z,32.41
2022-12-01T01:03:00.436Z,32.00
2022-12-01T01:08:07.445Z,28.57
2022-12-01T01:13:10.946Z,26.01
2022-12-01T01:18:15.609Z,26.96
2022-12-01T01:23:18.884Z,27.04
2022-12-01T01:28:25.268Z,26.01
2022-12-01T01:33:31.061Z,26.58
2022-12-01T01:38:35.050Z,26.77
2022-12-01T01:43:43.178Z,27.07
2022-12-01T01:48:52.332Z,26.64
2022-12-01T01:53:58.892Z,27.27
2022-12-01T01:59:02.331Z,27.28
2022-12-01T02:04:08.451Z,27.91
2022-12-01T02:09:16.159Z,27.95
2022-12-01T02:14:40.355Z,33.25
2022-12-01T02:20:05.423Z,36.53
2022-12-01T02:25:20.197Z,36.77
2022-12-01T02:30:33.449Z,34.05
2022-12-01T02:35:45.087Z,34.19
2022-12-01T02:40:53.638Z,30.71
2022-12-01T02:46:07.419Z,29.50
2022-12-01T02:51:15.613Z,28.43
2022-12-01T02:56:22.711Z,28.34
2022-12-01T03:01:39.094Z,28.08
2022-12-01T03:06:49.747Z,27.36
2022-12-01T03:11:59.871Z,26.60
2022-12-01T03:17:06.884Z,27.26
2022-12-01T03:22:13.733Z,27.53
2022-12-01T03:27:23.777Z,28.32
2022-12-01T03:32:32.953Z,26.60
2022-12-01T03:37:40.115Z,26.97
2022-12-01T03:42:47.870Z,27.21
2022-12-01T03:47:52.704Z,26.92
2022-12-01T03:53:07.684Z,26.82
2022-12-01T03:58:16.518Z,27.27
2022-12-01T04:03:27.072Z,27.35
2022-12-01T04:08:33.936Z,28.15
2022-12-01T04:13:39.563Z,28.06
2022-12-01T04:18:48.559Z,27.57
2022-12-01T04:24:04.040Z,29.55
2022-12-01T04:29:09.938Z,28.43
2022-12-01T04:34:14.672Z,28.32
2022-12-01T04:39:18.041Z,28.37
2022-12-01T04:44:21.285Z,28.18
2022-12-01T04:49:26.450Z,27.30
2022-12-01T04:54:29.895Z,27.28
2022-12-01T04:59:33.283Z,28.26
2022-12-01T05:04:38.850Z,28.30
2022-12-01T05:09:42.231Z,29.13
2022-12-01T05:14:45.603Z,30.50
2022-12-01T05:20:12.837Z,38.34
2022-12-01T05:25:16.212Z,35.06
2022-12-01T05:30:25.644Z,33.18
2022-12-01T05:35:35.648Z,31.01
2022-12-01T05:40:38.999Z,32.63
2022-12-01T05:45:42.444Z,34.86
2022-12-01T05:50:49.433Z,34.86
2022-12-01T05:55:53.310Z,27.81
2022-12-01T06:00:57.251Z,27.26
2022-12-01T06:06:04.198Z,27.28
2022-12-01T06:11:09.793Z,27.68
2022-12-01T06:16:13.127Z,28.64
2022-12-01T06:21:19.921Z,27.19
2022-12-01T06:26:26.386Z,27.16
2022-12-01T06:31:29.818Z,26.79
2022-12-01T06:36:34.815Z,26.92
2022-12-01T06:41:38.201Z,27.53
2022-12-01T06:46:43.925Z,27.18
2022-12-01T06:51:48.700Z,31.22
2022-12-01T06:56:52.080Z,34.82
2022-12-01T07:01:57.742Z,32.63
2022-12-01T07:07:02.441Z,33.69
2022-12-01T07:12:06.082Z,33.59
2022-12-01T07:17:09.435Z,33.16
2022-12-01T07:22:14.079Z,33.09
2022-12-01T07:27:17.622Z,35.15
2022-12-01T07:32:23.245Z,36.05
2022-12-01T07:37:28.011Z,34.23
2022-12-01T07:42:33.621Z,30.74
2022-12-01T07:47:36.897Z,31.60
2022-12-01T07:52:43.639Z,32.24
2022-12-01T07:57:50.071Z,35.75
2022-12-01T08:02:53.506Z,34.19
2022-12-01T08:07:58.657Z,34.79
2022-12-01T08:13:04.965Z,34.46
2022-12-01T08:18:08.329Z,31.83
2022-12-01T08:23:13.217Z,31.11
2022-12-01T08:28:19.109Z,32.71
2022-12-01T08:33:22.456Z,30.59
2022-12-01T08:38:27.145Z,27.48
2022-12-01T08:48:59.236Z,27.30
2022-12-01T08:54:06.080Z,25.79
2022-12-01T08:59:11.981Z,25.98
2022-12-01T09:04:15.318Z,25.03
2022-12-01T09:09:21.588Z,25.52
2022-12-01T09:14:27.142Z,26.28
2022-12-01T09:19:30.754Z,30.97
2022-12-01T09:24:35.602Z,27.43
2022-12-01T09:29:38.945Z,28.03
2022-12-01T09:34:42.419Z,29.77
2022-12-01T09:39:47.160Z,33.62
2022-12-01T09:44:52.863Z,34.04
2022-12-01T09:50:00.270Z,38.93
2022-12-01T09:55:08.587Z,37.30
2022-12-01T10:00:16.065Z,38.65
2022-12-01T10:05:21.336Z,36.28
2022-12-01T10:10:29.282Z,35.47
2022-12-01T10:15:44.241Z,40.25
2022-12-01T10:20:53.529Z,37.59
2022-12-01T10:26:00.234Z,38.74
2022-12-01T10:31:13.468Z,39.91
2022-12-01T10:36:19.004Z,40.18
2022-12-01T10:41:26.327Z,41.70
2022-12-01T10:46:34.583Z,40.25
2022-12-01T10:51:48.132Z,45.27
2022-12-01T10:56:57.005Z,47.11
2022-12-01T11:02:03.092Z,58.63
2022-12-01T11:07:07.318Z,51.84
2022-12-01T11:12:16.056Z,52.39
2022-12-01T11:17:27.810Z,52.65
2022-12-01T11:22:32.212Z,49.94
2022-12-01T11:27:43.433Z,51.16
2022-12-01T11:32:53.514Z,53.35
2022-12-01T11:38:29.219Z,48.75
2022-12-01T11:43:27.189Z,47.32
2022-12-01T11:48:36.655Z,50.88
2022-12-01T11:53:43.343Z,47.67
2022-12-01T11:58:49.309Z,47.21
2022-12-01T12:04:00.232Z,47.41
2022-12-01T12:09:14.566Z,50.70
2022-12-01T12:14:30.947Z,56.74
2022-12-01T12:20:06.750Z,56.18
2022-12-01T12:25:23.932Z,45.98
2022-12-01T12:30:32.742Z,43.56
2022-12-01T12:35:42.377Z,44.90
2022-12-01T12:40:53.949Z,46.77
2022-12-01T12:46:05.882Z,46.19
2022-12-01T12:51:14.290Z,43.94
2022-12-01T12:56:23.071Z,43.08
2022-12-01T13:01:34.751Z,38.67
2022-12-01T13:06:44.708Z,32.80
2022-12-01T13:11:52.619Z,34.28
2022-12-01T13:17:00.557Z,31.22
2022-12-01T13:22:08.512Z,26.53
2022-12-01T13:27:17.659Z,20.85
2022-12-01T13:32:28.842Z,22.44
2022-12-01T13:37:39.605Z,21.26
2022-12-01T13:42:43.251Z,19.85
2022-12-01T13:47:53.030Z,17.81
2022-12-01T13:53:10.975Z,17.96
2022-12-01T13:58:41.991Z,22.52
2022-12-01T14:03:53.238Z,19.17
2022-12-01T14:09:00.162Z,18.57
2022-12-01T14:14:11.661Z,18.82
2022-12-01T14:19:28.623Z,19.72
2022-12-01T14:24:35.358Z,21.22
2022-12-01T14:29:39.908Z,19.61
2022-12-01T14:34:45.660Z,21.96
2022-12-01T14:39:59.212Z,27.79
2022-12-01T14:45:04.654Z,20.53
2022-12-01T14:50:16.109Z,20.76
2022-12-01T14:55:25.499Z,22.20
2022-12-01T15:00:34.971Z,25.76
2022-12-01T15:05:44.180Z,26.34
2022-12-01T15:10:52.579Z,27.25
2022-12-01T15:15:58.350Z,26.82
2022-12-01T15:21:10.506Z,30.81
2022-12-01T15:26:20.547Z,29.11
2022-12-01T15:31:26.438Z,29.86
2022-12-01T15:36:31.188Z,29.05
2022-12-01T15:41:38.126Z,33.83
2022-12-01T15:46:42.197Z,29.97
2022-12-01T15:51:50.576Z,32.52
2022-12-01T15:56:58.680Z,32.02
2022-12-01T16:02:07.282Z,42.04
2022-12-01T16:07:12.847Z,37.29
2022-12-01T16:12:24.468Z,38.10
2022-12-01T16:17:41.505Z,53.58
2022-12-01T16:22:50.893Z,40.61
2022-12-01T16:27:58.456Z,38.85
2022-12-01T16:33:03.670Z,38.89
2022-12-01T16:38:13.257Z,41.40
2022-12-01T16:43:17.798Z,42.23
2022-12-01T16:48:21.613Z,43.44
2022-12-01T16:53:28.383Z,39.41
2022-12-01T16:58:31.744Z,41.39
2022-12-01T17:03:35.957Z,41.11
2022-12-01T17:08:40.579Z,41.33
2022-12-01T17:13:46.252Z,39.88
2022-12-01T17:18:49.558Z,59.36
2022-12-01T17:23:54.296Z,38.36
2022-12-01T17:28:57.592Z,39.64
2022-12-01T17:34:05.585Z,38.04
2022-12-01T17:39:10.648Z,38.89
2022-12-01T17:44:16.457Z,42.08
2022-12-01T17:49:21.978Z,48.12
2022-12-01T17:54:26.615Z,45.41
2022-12-01T17:59:29.918Z,44.93
2022-12-01T18:04:36.090Z,44.73
2022-12-01T18:09:41.064Z,47.20
2022-12-01T18:14:44.591Z,50.11
2022-12-01T18:19:48.996Z,47.79
2022-12-01T18:24:53.728Z,47.51
2022-12-01T18:29:57.843Z,49.61
2022-12-01T18:35:03.365Z,45.47
2022-12-01T18:40:09.205Z,44.45
2022-12-01T18:45:17.956Z,41.51
2022-12-01T18:50:26.726Z,42.39
2022-12-01T18:55:31.538Z,45.49
2022-12-01T19:00:35.320Z,48.84
2022-12-01T19:05:38.804Z,51.05
2022-12-01T19:10:45.813Z,48.63
2022-12-01T19:15:49.436Z,46.75
2022-12-01T19:20:52.879Z,48.47
2022-12-01T19:25:57.617Z,47.77
2022-12-01T19:31:01.299Z,51.49
2022-12-01T19:36:05.526Z,50.66
2022-12-01T19:41:13.493Z,53.15
2022-12-01T19:46:21.450Z,48.43
2022-12-01T19:51:26.423Z,45.06
2022-12-01T19:56:31.740Z,46.13
2022-12-01T20:01:35.336Z,46.42
2022-12-01T20:06:39.242Z,55.11
2022-12-01T20:11:45.025Z,52.31
2022-12-01T20:16:50.972Z,48.94
2022-12-01T20:21:56.528Z,48.54
2022-12-01T20:27:04.476Z,44.90
2022-12-01T20:32:11.291Z,44.20
2022-12-01T20:37:15.255Z,44.63
2022-12-01T20:42:22.325Z,44.67
2022-12-01T20:47:25.662Z,45.52
2022-12-01T20:52:29.029Z,46.45
2022-12-01T20:57:33.795Z,46.04
2022-12-01T21:02:37.849Z,46.64
2022-12-01T21:07:41.346Z,44.49
2022-12-01T21:13:07.216Z,44.56
2022-12-01T21:18:21.309Z,44.22
2022-12-01T21:23:28.152Z,44.92
2022-12-01T21:28:32.791Z,43.81
2022-12-01T21:33:37.415Z,44.45
2022-12-01T21:38:42.915Z,44.34
2022-12-01T21:43:47.526Z,44.54
2022-12-01T21:48:53.042Z,46.22
2022-12-01T21:53:59.250Z,44.99
2022-12-01T21:59:14.802Z,43.64
2022-12-01T22:04:20.314Z,39.26
2022-12-01T22:09:25.646Z,39.29
2022-12-01T22:14:33.465Z,38.20
2022-12-01T22:19:39.040Z,39.27
2022-12-01T22:24:43.770Z,39.33
2022-12-01T22:29:50.348Z,40.87
2022-12-01T22:34:56.311Z,40.49
2022-12-01T22:39:59.619Z,39.66
2022-12-01T22:45:20.732Z,40.74
2022-12-01T22:50:27.802Z,42.34
2022-12-01T22:55:31.104Z,40.25
2022-12-01T23:00:38.127Z,40.34
2022-12-01T23:05:42.155Z,39.50
2022-12-01T23:10:45.863Z,37.57
2022-12-01T23:15:55.301Z,37.58
2022-12-01T23:21:00.002Z,37.16
2022-12-01T23:26:04.546Z,37.25
2022-12-01T23:31:10.274Z,37.56
2022-12-01T23:36:17.644Z,38.13
2022-12-01T23:41:25.727Z,37.36
2022-12-01T23:46:30.668Z,36.23
2022-12-01T23:51:36.953Z,34.61
2022-12-01T23:56:42.580Z,33.41
